sensor_id;sensor_type;location;lat;lon;timestamp;pressure;altitude;pressure_sealevel;temperature;humidity
57600;BME280;43426;43.594;24.334;2023-08-01T00:00:11;100634.69;;;19.13;98.60
57600;BME280;43426;43.594;24.334;2023-08-01T00:02:37;100636.25;;;18.91;100.00
57600;BME280;43426;43.594;24.334;2023-08-01T00:05:03;100628.50;;;18.87;100.00
57600;BME280;43426;43.594;24.334;2023-08-01T00:07:28;100627.78;;;18.74;100.00
57600;BME280;43426;43.594;24.334;2023-08-01T00:09:54;100627.41;;;18.70;100.00
57600;BME280;43426;43.594;24.334;2023-08-01T00:12:19;100628.63;;;18.74;100.00
57600;BME280;43426;43.594;24.334;2023-08-01T00:14:44;100619.22;;;18.70;100.00
57600;BME280;43426;43.594;24.334;2023-08-01T00:17:10;100623.16;;;18.55;100.00
57600;BME280;43426;43.594;24.334;2023-08-01T00:19:35;100618.22;;;18.46;100.00
57600;BME280;43426;43.594;24.334;2023-08-01T00:22:00;100616.84;;;18.55;100.00
57600;BME280;43426;43.594;24.334;2023-08-01T00:24:25;100615.88;;;18.68;100.00
57600;BME280;43426;43.594;24.334;2023-08-01T00:26:51;100620.72;;;18.66;100.00
57600;BME280;43426;43.594;24.334;2023-08-01T00:29:20;100619.38;;;18.75;100.00
57600;BME280;43426;43.594;24.334;2023-08-01T00:31:45;100608.91;;;18.72;100.00
57600;BME280;43426;43.594;24.334;2023-08-01T00:34:10;100631.66;;;18.66;100.00
57600;BME280;43426;43.594;24.334;2023-08-01T00:36:35;100611.75;;;18.77;100.00
57600;BME280;43426;43.594;24.334;2023-08-01T00:39:01;100622.69;;;18.77;100.00
57600;BME280;43426;43.594;24.334;2023-08-01T00:41:26;100613.38;;;18.66;99.17
57600;BME280;43426;43.594;24.334;2023-08-01T00:43:51;100615.19;;;18.54;98.40
57600;BME280;43426;43.594;24.334;2023-08-01T00:46:16;100609.94;;;18.52;98.41
57600;BME280;43426;43.594;24.334;2023-08-01T00:48:42;100617.84;;;18.42;99.84
57600;BME280;43426;43.594;24.334;2023-08-01T00:51:09;100609.09;;;18.33;100.00
57600;BME280;43426;43.594;24.334;2023-08-01T00:53:35;100609.69;;;18.17;100.00
57600;BME280;43426;43.594;24.334;2023-08-01T00:56:00;100609.63;;;18.24;100.00
57600;BME280;43426;43.594;24.334;2023-08-01T00:58:26;100607.72;;;18.24;100.00
57600;BME280;43426;43.594;24.334;2023-08-01T01:00:51;100605.09;;;18.36;100.00
57600;BME280;43426;43.594;24.334;2023-08-01T01:03:17;100604.22;;;18.17;100.00
57600;BME280;43426;43.594;24.334;2023-08-01T01:05:45;100602.59;;;18.09;100.00
57600;BME280;43426;43.594;24.334;2023-08-01T01:08:13;100593.88;;;18.00;100.00
57600;BME280;43426;43.594;24.334;2023-08-01T01:10:38;100596.59;;;18.00;100.00
57600;BME280;43426;43.594;24.334;2023-08-01T01:13:03;100587.72;;;18.05;99.94
57600;BME280;43426;43.594;24.334;2023-08-01T01:15:29;100596.91;;;18.11;99.40
57600;BME280;43426;43.594;24.334;2023-08-01T01:17:54;100590.41;;;18.12;99.67
57600;BME280;43426;43.594;24.334;2023-08-01T01:20:23;100593.00;;;18.25;99.24
57600;BME280;43426;43.594;24.334;2023-08-01T01:22:49;100595.50;;;18.27;98.20
57600;BME280;43426;43.594;24.334;2023-08-01T01:25:15;100595.06;;;18.30;97.99
57600;BME280;43426;43.594;24.334;2023-08-01T01:27:40;100590.75;;;18.22;97.17
57600;BME280;43426;43.594;24.334;2023-08-01T01:30:06;100582.44;;;18.10;96.81
57600;BME280;43426;43.594;24.334;2023-08-01T01:32:32;100584.41;;;18.03;97.73
57600;BME280;43426;43.594;24.334;2023-08-01T01:34:57;100582.56;;;17.97;97.51
57600;BME280;43426;43.594;24.334;2023-08-01T01:37:23;100583.44;;;17.91;97.99
57600;BME280;43426;43.594;24.334;2023-08-01T01:39:49;100579.53;;;18.05;97.24
57600;BME280;43426;43.594;24.334;2023-08-01T01:42:14;100572.63;;;18.02;97.04
57600;BME280;43426;43.594;24.334;2023-08-01T01:44:39;100574.81;;;17.94;97.99
57600;BME280;43426;43.594;24.334;2023-08-01T01:47:05;100578.72;;;17.79;97.55
57600;BME280;43426;43.594;24.334;2023-08-01T01:49:31;100578.63;;;17.86;97.33
57600;BME280;43426;43.594;24.334;2023-08-01T01:51:56;100576.19;;;17.78;97.75
57600;BME280;43426;43.594;24.334;2023-08-01T01:54:21;100587.50;;;17.81;97.57
57600;BME280;43426;43.594;24.334;2023-08-01T01:56:46;100580.75;;;17.84;98.15
57600;BME280;43426;43.594;24.334;2023-08-01T01:59:12;100577.19;;;17.83;98.77
57600;BME280;43426;43.594;24.334;2023-08-01T02:01:37;100580.63;;;17.72;99.50
57600;BME280;43426;43.594;24.334;2023-08-01T02:04:02;100582.75;;;17.70;99.42
57600;BME280;43426;43.594;24.334;2023-08-01T02:06:28;100576.25;;;17.71;98.73
57600;BME280;43426;43.594;24.334;2023-08-01T02:08:54;100576.53;;;17.63;98.48
57600;BME280;43426;43.594;24.334;2023-08-01T02:11:19;100583.44;;;17.65;98.89
57600;BME280;43426;43.594;24.334;2023-08-01T02:13:44;100581.09;;;17.69;98.83
57600;BME280;43426;43.594;24.334;2023-08-01T02:16:10;100577.13;;;17.65;98.63
57600;BME280;43426;43.594;24.334;2023-08-01T02:18:35;100575.94;;;17.54;99.43
57600;BME280;43426;43.594;24.334;2023-08-01T02:21:01;100579.13;;;17.51;99.61
57600;BME280;43426;43.594;24.334;2023-08-01T02:23:27;100581.34;;;17.61;98.16
57600;BME280;43426;43.594;24.334;2023-08-01T02:25:52;100582.25;;;17.55;98.46
57600;BME280;43426;43.594;24.334;2023-08-01T02:28:17;100587.09;;;17.52;98.64
57600;BME280;43426;43.594;24.334;2023-08-01T02:30:43;100584.41;;;17.46;98.23
57600;BME280;43426;43.594;24.334;2023-08-01T02:33:09;100599.34;;;17.43;97.17
57600;BME280;43426;43.594;24.334;2023-08-01T02:35:34;100586.38;;;17.32;98.02
57600;BME280;43426;43.594;24.334;2023-08-01T02:37:59;100584.53;;;17.26;99.17
57600;BME280;43426;43.594;24.334;2023-08-01T02:40:27;100588.75;;;17.22;99.22
57600;BME280;43426;43.594;24.334;2023-08-01T02:42:52;100592.31;;;17.22;98.95
57600;BME280;43426;43.594;24.334;2023-08-01T02:45:18;100589.78;;;17.27;98.54
57600;BME280;43426;43.594;24.334;2023-08-01T02:47:46;100597.38;;;17.18;99.10
57600;BME280;43426;43.594;24.334;2023-08-01T02:50:11;100592.78;;;17.12;99.78
57600;BME280;43426;43.594;24.334;2023-08-01T02:52:36;100594.69;;;17.12;100.00
57600;BME280;43426;43.594;24.334;2023-08-01T02:55:01;100597.88;;;17.02;100.00
57600;BME280;43426;43.594;24.334;2023-08-01T02:57:27;100596.66;;;16.98;100.00
57600;BME280;43426;43.594;24.334;2023-08-01T02:59:52;100605.44;;;17.00;100.00
57600;BME280;43426;43.594;24.334;2023-08-01T03:02:18;100593.25;;;17.02;100.00
57600;BME280;43426;43.594;24.334;2023-08-01T03:04:44;100588.66;;;17.03;100.00
57600;BME280;43426;43.594;24.334;2023-08-01T03:07:09;100594.13;;;17.03;100.00
57600;BME280;43426;43.594;24.334;2023-08-01T03:09:34;100590.31;;;17.04;100.00
57600;BME280;43426;43.594;24.334;2023-08-01T03:11:59;100598.75;;;16.96;100.00
57600;BME280;43426;43.594;24.334;2023-08-01T03:14:25;100600.03;;;16.87;100.00
57600;BME280;43426;43.594;24.334;2023-08-01T03:16:50;100597.56;;;16.78;100.00
57600;BME280;43426;43.594;24.334;2023-08-01T03:19:15;100599.19;;;16.79;100.00
57600;BME280;43426;43.594;24.334;2023-08-01T03:21:41;100595.53;;;16.60;100.00
57600;BME280;43426;43.594;24.334;2023-08-01T03:24:06;100591.34;;;16.58;100.00
57600;BME280;43426;43.594;24.334;2023-08-01T03:26:34;100593.41;;;16.62;100.00
57600;BME280;43426;43.594;24.334;2023-08-01T03:28:59;100595.28;;;16.68;100.00
57600;BME280;43426;43.594;24.334;2023-08-01T03:31:25;100595.06;;;16.70;100.00
57600;BME280;43426;43.594;24.334;2023-08-01T03:33:50;100593.81;;;16.66;100.00
57600;BME280;43426;43.594;24.334;2023-08-01T03:36:16;100596.31;;;16.74;100.00
57600;BME280;43426;43.594;24.334;2023-08-01T03:38:41;100595.50;;;16.67;99.82
57600;BME280;43426;43.594;24.334;2023-08-01T03:41:06;100601.34;;;16.71;100.00
57600;BME280;43426;43.594;24.334;2023-08-01T03:43:32;100599.06;;;16.67;99.95
57600;BME280;43426;43.594;24.334;2023-08-01T03:45:57;100603.63;;;16.74;99.96
57600;BME280;43426;43.594;24.334;2023-08-01T03:48:22;100608.00;;;16.81;99.67
57600;BME280;43426;43.594;24.334;2023-08-01T03:50:48;100614.28;;;16.89;99.54
57600;BME280;43426;43.594;24.334;2023-08-01T03:53:13;100617.22;;;16.87;99.08
57600;BME280;43426;43.594;24.334;2023-08-01T03:55:38;100613.84;;;16.98;98.24
57600;BME280;43426;43.594;24.334;2023-08-01T03:58:04;100626.38;;;17.06;97.42
57600;BME280;43426;43.594;24.334;2023-08-01T04:00:29;100628.00;;;17.14;96.90
57600;BME280;43426;43.594;24.334;2023-08-01T04:02:58;100631.31;;;17.29;96.92
57600;BME280;43426;43.594;24.334;2023-08-01T04:05:23;100640.00;;;17.51;95.39
57600;BME280;43426;43.594;24.334;2023-08-01T04:07:49;100638.50;;;17.56;93.93
57600;BME280;43426;43.594;24.334;2023-08-01T04:10:19;100628.97;;;17.65;93.40
57600;BME280;43426;43.594;24.334;2023-08-01T04:12:45;100628.66;;;17.80;92.53
57600;BME280;43426;43.594;24.334;2023-08-01T04:15:10;100624.38;;;17.91;92.12
57600;BME280;43426;43.594;24.334;2023-08-01T04:17:35;100631.34;;;17.86;93.22
57600;BME280;43426;43.594;24.334;2023-08-01T04:20:01;100635.06;;;17.99;92.25
57600;BME280;43426;43.594;24.334;2023-08-01T04:22:26;100642.06;;;18.13;92.20
57600;BME280;43426;43.594;24.334;2023-08-01T04:24:52;100646.94;;;18.30;91.32
57600;BME280;43426;43.594;24.334;2023-08-01T04:27:19;100629.97;;;18.46;90.59
57600;BME280;43426;43.594;24.334;2023-08-01T04:29:45;100631.97;;;18.58;90.29
57600;BME280;43426;43.594;24.334;2023-08-01T04:32:10;100634.78;;;18.69;89.76
57600;BME280;43426;43.594;24.334;2023-08-01T04:34:38;100639.41;;;18.69;88.71
57600;BME280;43426;43.594;24.334;2023-08-01T04:37:04;100649.91;;;18.72;89.33
57600;BME280;43426;43.594;24.334;2023-08-01T04:39:29;100642.19;;;18.87;87.62
57600;BME280;43426;43.594;24.334;2023-08-01T04:41:54;100643.50;;;18.78;89.51
57600;BME280;43426;43.594;24.334;2023-08-01T04:44:20;100637.97;;;18.85;88.89
57600;BME280;43426;43.594;24.334;2023-08-01T04:46:45;100649.31;;;18.88;90.68
57600;BME280;43426;43.594;24.334;2023-08-01T04:49:10;100643.84;;;18.88;92.37
57600;BME280;43426;43.594;24.334;2023-08-01T04:51:36;100649.13;;;19.02;92.97
57600;BME280;43426;43.594;24.334;2023-08-01T04:54:01;100650.88;;;19.45;90.67
57600;BME280;43426;43.594;24.334;2023-08-01T04:56:26;100645.84;;;19.30;91.83
57600;BME280;43426;43.594;24.334;2023-08-01T04:58:52;100655.59;;;19.38;92.79
57600;BME280;43426;43.594;24.334;2023-08-01T05:01:17;100655.91;;;19.60;92.58
57600;BME280;43426;43.594;24.334;2023-08-01T05:03:42;100658.41;;;19.62;92.14
57600;BME280;43426;43.594;24.334;2023-08-01T05:06:08;100661.69;;;19.70;94.46
57600;BME280;43426;43.594;24.334;2023-08-01T05:08:33;100664.88;;;19.67;96.67
57600;BME280;43426;43.594;24.334;2023-08-01T05:10:58;100658.63;;;19.79;95.43
57600;BME280;43426;43.594;24.334;2023-08-01T05:13:24;100659.03;;;19.64;96.38
57600;BME280;43426;43.594;24.334;2023-08-01T05:15:49;100661.22;;;19.73;96.04
57600;BME280;43426;43.594;24.334;2023-08-01T05:18:15;100658.00;;;19.77;96.90
57600;BME280;43426;43.594;24.334;2023-08-01T05:20:44;100654.81;;;19.80;98.10
57600;BME280;43426;43.594;24.334;2023-08-01T05:23:09;100661.16;;;19.92;97.68
57600;BME280;43426;43.594;24.334;2023-08-01T05:25:34;100659.25;;;19.93;98.03
57600;BME280;43426;43.594;24.334;2023-08-01T05:28:00;100654.03;;;20.03;96.44
57600;BME280;43426;43.594;24.334;2023-08-01T05:30:25;100663.34;;;20.14;97.30
57600;BME280;43426;43.594;24.334;2023-08-01T05:32:51;100655.22;;;20.07;98.16
57600;BME280;43426;43.594;24.334;2023-08-01T05:35:16;100664.91;;;20.21;97.20
57600;BME280;43426;43.594;24.334;2023-08-01T05:37:42;100658.81;;;20.19;98.22
57600;BME280;43426;43.594;24.334;2023-08-01T05:40:07;100658.69;;;20.14;98.19
57600;BME280;43426;43.594;24.334;2023-08-01T05:42:33;100670.38;;;20.21;96.98
57600;BME280;43426;43.594;24.334;2023-08-01T05:44:58;100657.84;;;20.25;98.43
57600;BME280;43426;43.594;24.334;2023-08-01T05:47:23;100663.22;;;20.32;99.96
57600;BME280;43426;43.594;24.334;2023-08-01T05:49:49;100665.34;;;20.42;100.00
57600;BME280;43426;43.594;24.334;2023-08-01T05:52:14;100674.31;;;20.49;100.00
57600;BME280;43426;43.594;24.334;2023-08-01T05:54:40;100658.00;;;20.42;100.00
57600;BME280;43426;43.594;24.334;2023-08-01T05:57:05;100661.31;;;20.33;100.00
57600;BME280;43426;43.594;24.334;2023-08-01T05:59:31;100658.84;;;20.31;100.00
57600;BME280;43426;43.594;24.334;2023-08-01T06:01:56;100652.50;;;20.42;100.00
57600;BME280;43426;43.594;24.334;2023-08-01T06:04:21;100651.66;;;20.66;100.00
57600;BME280;43426;43.594;24.334;2023-08-01T06:06:47;100647.59;;;20.56;100.00
57600;BME280;43426;43.594;24.334;2023-08-01T06:09:13;100656.06;;;20.55;100.00
57600;BME280;43426;43.594;24.334;2023-08-01T06:11:38;100653.69;;;20.47;100.00
57600;BME280;43426;43.594;24.334;2023-08-01T06:14:03;100654.16;;;20.55;100.00
57600;BME280;43426;43.594;24.334;2023-08-01T06:16:28;100658.81;;;20.43;100.00
57600;BME280;43426;43.594;24.334;2023-08-01T06:18:54;100653.44;;;20.36;100.00
57600;BME280;43426;43.594;24.334;2023-08-01T06:21:19;100652.50;;;20.42;100.00
57600;BME280;43426;43.594;24.334;2023-08-01T06:23:44;100655.72;;;20.51;100.00
57600;BME280;43426;43.594;24.334;2023-08-01T06:26:10;100650.47;;;20.62;100.00
57600;BME280;43426;43.594;24.334;2023-08-01T06:28:35;100655.34;;;20.83;100.00
57600;BME280;43426;43.594;24.334;2023-08-01T06:31:00;100663.56;;;20.83;100.00
57600;BME280;43426;43.594;24.334;2023-08-01T06:33:26;100645.72;;;20.69;100.00
57600;BME280;43426;43.594;24.334;2023-08-01T06:35:51;100653.22;;;20.73;100.00
57600;BME280;43426;43.594;24.334;2023-08-01T06:38:16;100657.84;;;20.85;100.00
57600;BME280;43426;43.594;24.334;2023-08-01T06:40:41;100656.41;;;20.94;100.00
57600;BME280;43426;43.594;24.334;2023-08-01T06:43:07;100657.22;;;20.95;100.00
57600;BME280;43426;43.594;24.334;2023-08-01T06:45:32;100652.47;;;20.90;100.00
57600;BME280;43426;43.594;24.334;2023-08-01T06:47:57;100646.34;;;21.00;100.00
57600;BME280;43426;43.594;24.334;2023-08-01T06:50:23;100652.53;;;21.07;100.00
57600;BME280;43426;43.594;24.334;2023-08-01T06:52:48;100650.59;;;21.19;100.00
57600;BME280;43426;43.594;24.334;2023-08-01T06:55:13;100655.41;;;21.41;100.00
57600;BME280;43426;43.594;24.334;2023-08-01T06:57:39;100645.84;;;21.43;98.90
57600;BME280;43426;43.594;24.334;2023-08-01T07:00:04;100644.38;;;21.53;99.65
57600;BME280;43426;43.594;24.334;2023-08-01T07:02:30;100642.59;;;21.75;99.40
57600;BME280;43426;43.594;24.334;2023-08-01T07:04:55;100648.09;;;21.92;97.38
57600;BME280;43426;43.594;24.334;2023-08-01T07:07:21;100640.25;;;22.01;96.87
57600;BME280;43426;43.594;24.334;2023-08-01T07:09:46;100646.00;;;22.00;95.81
57600;BME280;43426;43.594;24.334;2023-08-01T07:12:11;100635.13;;;22.05;95.44
57600;BME280;43426;43.594;24.334;2023-08-01T07:14:37;100632.94;;;22.07;95.13
57600;BME280;43426;43.594;24.334;2023-08-01T07:17:02;100641.25;;;22.12;95.25
57600;BME280;43426;43.594;24.334;2023-08-01T07:19:27;100643.94;;;22.24;94.69
57600;BME280;43426;43.594;24.334;2023-08-01T07:21:53;100644.97;;;22.35;95.02
57600;BME280;43426;43.594;24.334;2023-08-01T07:24:18;100645.09;;;22.45;93.25
57600;BME280;43426;43.594;24.334;2023-08-01T07:26:44;100647.50;;;22.41;92.95
57600;BME280;43426;43.594;24.334;2023-08-01T07:29:09;100658.19;;;22.77;91.09
57600;BME280;43426;43.594;24.334;2023-08-01T07:31:36;100644.44;;;22.77;91.46
57600;BME280;43426;43.594;24.334;2023-08-01T07:34:01;100651.88;;;22.99;90.39
57600;BME280;43426;43.594;24.334;2023-08-01T07:36:27;100654.31;;;23.17;88.37
57600;BME280;43426;43.594;24.334;2023-08-01T07:38:53;100648.44;;;23.36;89.58
57600;BME280;43426;43.594;24.334;2023-08-01T07:41:18;100643.56;;;23.70;85.99
57600;BME280;43426;43.594;24.334;2023-08-01T07:43:43;100651.97;;;23.86;86.19
57600;BME280;43426;43.594;24.334;2023-08-01T07:46:08;100654.88;;;24.01;84.37
57600;BME280;43426;43.594;24.334;2023-08-01T07:48:34;100649.78;;;24.20;83.69
57600;BME280;43426;43.594;24.334;2023-08-01T07:51:00;100651.38;;;24.11;81.58
57600;BME280;43426;43.594;24.334;2023-08-01T07:53:25;100647.69;;;23.68;84.46
57600;BME280;43426;43.594;24.334;2023-08-01T07:55:52;100649.22;;;23.86;85.69
57600;BME280;43426;43.594;24.334;2023-08-01T07:58:18;100660.13;;;24.03;82.99
57600;BME280;43426;43.594;24.334;2023-08-01T08:00:43;100655.81;;;24.17;82.79
57600;BME280;43426;43.594;24.334;2023-08-01T08:03:09;100659.50;;;24.28;81.57
57600;BME280;43426;43.594;24.334;2023-08-01T08:05:34;100648.00;;;24.41;82.33
57600;BME280;43426;43.594;24.334;2023-08-01T08:08:03;100646.34;;;24.88;79.18
57600;BME280;43426;43.594;24.334;2023-08-01T08:10:28;100654.50;;;25.26;78.36
57600;BME280;43426;43.594;24.334;2023-08-01T08:12:54;100642.72;;;25.92;76.85
57600;BME280;43426;43.594;24.334;2023-08-01T08:15:19;100641.00;;;26.58;72.82
57600;BME280;43426;43.594;24.334;2023-08-01T08:17:45;100640.66;;;26.85;71.66
57600;BME280;43426;43.594;24.334;2023-08-01T08:20:10;100642.84;;;26.94;69.49
57600;BME280;43426;43.594;24.334;2023-08-01T08:22:35;100640.97;;;26.68;71.97
57600;BME280;43426;43.594;24.334;2023-08-01T08:25:01;100637.94;;;26.75;71.24
57600;BME280;43426;43.594;24.334;2023-08-01T08:27:26;100635.91;;;26.91;72.27
57600;BME280;43426;43.594;24.334;2023-08-01T08:29:51;100641.19;;;27.48;68.10
57600;BME280;43426;43.594;24.334;2023-08-01T08:32:17;100634.41;;;27.19;68.14
57600;BME280;43426;43.594;24.334;2023-08-01T08:34:42;100633.13;;;27.01;70.33
57600;BME280;43426;43.594;24.334;2023-08-01T08:37:07;100637.34;;;27.39;69.10
57600;BME280;43426;43.594;24.334;2023-08-01T08:39:33;100631.56;;;27.75;69.96
57600;BME280;43426;43.594;24.334;2023-08-01T08:41:58;100625.84;;;28.00;66.16
57600;BME280;43426;43.594;24.334;2023-08-01T08:44:24;100627.97;;;28.09;65.25
57600;BME280;43426;43.594;24.334;2023-08-01T08:46:51;100618.94;;;27.93;64.00
57600;BME280;43426;43.594;24.334;2023-08-01T08:49:17;100609.47;;;27.99;65.91
57600;BME280;43426;43.594;24.334;2023-08-01T08:51:44;100605.63;;;28.24;66.02
57600;BME280;43426;43.594;24.334;2023-08-01T08:54:10;100603.56;;;28.59;63.70
57600;BME280;43426;43.594;24.334;2023-08-01T08:56:36;100607.38;;;28.68;61.94
57600;BME280;43426;43.594;24.334;2023-08-01T08:59:03;100595.00;;;28.80;64.34
57600;BME280;43426;43.594;24.334;2023-08-01T09:01:29;100602.03;;;29.15;62.70
57600;BME280;43426;43.594;24.334;2023-08-01T09:03:56;100592.81;;;29.39;62.70
57600;BME280;43426;43.594;24.334;2023-08-01T09:06:28;100587.91;;;29.69;60.26
57600;BME280;43426;43.594;24.334;2023-08-01T09:09:03;100586.47;;;29.71;59.27
57600;BME280;43426;43.594;24.334;2023-08-01T09:11:37;100592.25;;;30.08;59.75
57600;BME280;43426;43.594;24.334;2023-08-01T09:14:03;100582.47;;;30.38;58.11
57600;BME280;43426;43.594;24.334;2023-08-01T09:16:28;100582.28;;;30.49;57.81
57600;BME280;43426;43.594;24.334;2023-08-01T09:18:54;100576.09;;;30.80;57.12
57600;BME280;43426;43.594;24.334;2023-08-01T09:21:20;100583.91;;;30.91;55.51
57600;BME280;43426;43.594;24.334;2023-08-01T09:23:45;100578.25;;;30.83;54.72
57600;BME280;43426;43.594;24.334;2023-08-01T09:26:14;100581.69;;;30.66;55.52
57600;BME280;43426;43.594;24.334;2023-08-01T09:28:39;100579.47;;;31.04;55.38
57600;BME280;43426;43.594;24.334;2023-08-01T09:31:05;100577.47;;;31.19;54.64
57600;BME280;43426;43.594;24.334;2023-08-01T09:33:39;100571.41;;;31.39;54.04
57600;BME280;43426;43.594;24.334;2023-08-01T09:36:06;100567.13;;;31.19;54.99
57600;BME280;43426;43.594;24.334;2023-08-01T09:38:33;100564.16;;;31.16;54.26
57600;BME280;43426;43.594;24.334;2023-08-01T09:40:59;100572.53;;;31.16;52.60
57600;BME280;43426;43.594;24.334;2023-08-01T09:43:24;100574.28;;;31.12;54.04
57600;BME280;43426;43.594;24.334;2023-08-01T09:45:50;100576.47;;;31.37;53.39
57600;BME280;43426;43.594;24.334;2023-08-01T09:48:25;100578.84;;;31.07;54.42
57600;BME280;43426;43.594;24.334;2023-08-01T09:50:51;100567.09;;;31.56;53.82
57600;BME280;43426;43.594;24.334;2023-08-01T09:53:18;100558.97;;;31.91;52.55
57600;BME280;43426;43.594;24.334;2023-08-01T09:55:43;100555.84;;;31.92;50.05
57600;BME280;43426;43.594;24.334;2023-08-01T09:58:10;100554.22;;;32.23;51.36
57600;BME280;43426;43.594;24.334;2023-08-01T10:00:38;100550.50;;;32.36;51.82
57600;BME280;43426;43.594;24.334;2023-08-01T10:03:04;100541.34;;;32.62;49.87
57600;BME280;43426;43.594;24.334;2023-08-01T10:05:33;100542.97;;;32.46;48.96
57600;BME280;43426;43.594;24.334;2023-08-01T10:07:59;100533.28;;;32.52;50.03
57600;BME280;43426;43.594;24.334;2023-08-01T10:10:26;100530.69;;;32.64;50.00
57600;BME280;43426;43.594;24.334;2023-08-01T10:12:51;100522.47;;;32.68;49.68
57600;BME280;43426;43.594;24.334;2023-08-01T10:15:20;100521.16;;;32.65;47.98
57600;BME280;43426;43.594;24.334;2023-08-01T10:17:45;100515.50;;;32.39;48.12
57600;BME280;43426;43.594;24.334;2023-08-01T10:20:10;100522.94;;;32.12;47.29
57600;BME280;43426;43.594;24.334;2023-08-01T10:22:37;100508.06;;;32.25;49.25
57600;BME280;43426;43.594;24.334;2023-08-01T10:25:04;100501.56;;;32.48;48.14
57600;BME280;43426;43.594;24.334;2023-08-01T10:27:30;100499.16;;;32.72;48.60
57600;BME280;43426;43.594;24.334;2023-08-01T10:29:59;100495.03;;;33.05;48.14
57600;BME280;43426;43.594;24.334;2023-08-01T10:32:34;100495.72;;;33.28;47.55
57600;BME280;43426;43.594;24.334;2023-08-01T10:35:00;100486.81;;;33.43;44.07
57600;BME280;43426;43.594;24.334;2023-08-01T10:37:26;100480.75;;;32.89;46.29
57600;BME280;43426;43.594;24.334;2023-08-01T10:39:58;100481.75;;;33.02;48.15
57600;BME280;43426;43.594;24.334;2023-08-01T10:42:24;100475.31;;;33.10;45.72
57600;BME280;43426;43.594;24.334;2023-08-01T10:44:50;100475.81;;;33.03;45.50
57600;BME280;43426;43.594;24.334;2023-08-01T10:47:24;100470.22;;;33.03;46.23
57600;BME280;43426;43.594;24.334;2023-08-01T10:49:50;100465.47;;;33.04;44.94
57600;BME280;43426;43.594;24.334;2023-08-01T10:52:19;100458.53;;;33.10;44.96
57600;BME280;43426;43.594;24.334;2023-08-01T10:54:46;100456.25;;;33.03;43.96
57600;BME280;43426;43.594;24.334;2023-08-01T10:57:15;100444.50;;;33.45;45.06
57600;BME280;43426;43.594;24.334;2023-08-01T10:59:40;100444.16;;;33.47;43.39
57600;BME280;43426;43.594;24.334;2023-08-01T11:02:07;100442.38;;;33.42;44.55
57600;BME280;43426;43.594;24.334;2023-08-01T11:04:35;100438.66;;;33.29;43.74
57600;BME280;43426;43.594;24.334;2023-08-01T11:07:00;100433.78;;;33.56;43.80
57600;BME280;43426;43.594;24.334;2023-08-01T11:09:27;100440.59;;;33.85;41.67
57600;BME280;43426;43.594;24.334;2023-08-01T11:11:53;100435.16;;;33.88;42.95
57600;BME280;43426;43.594;24.334;2023-08-01T11:14:19;100437.13;;;33.88;38.59
57600;BME280;43426;43.594;24.334;2023-08-01T11:16:45;100431.09;;;33.77;40.67
57600;BME280;43426;43.594;24.334;2023-08-01T11:19:21;100428.50;;;34.32;37.69
57600;BME280;43426;43.594;24.334;2023-08-01T11:21:46;100423.78;;;34.44;39.43
57600;BME280;43426;43.594;24.334;2023-08-01T11:24:12;100411.31;;;34.63;39.05
57600;BME280;43426;43.594;24.334;2023-08-01T11:26:41;100416.69;;;34.68;38.90
57600;BME280;43426;43.594;24.334;2023-08-01T11:29:06;100404.13;;;35.08;39.39
57600;BME280;43426;43.594;24.334;2023-08-01T11:31:32;100413.34;;;35.42;33.21
57600;BME280;43426;43.594;24.334;2023-08-01T11:33:57;100402.53;;;34.86;32.94
57600;BME280;43426;43.594;24.334;2023-08-01T11:36:27;100408.75;;;34.70;34.89
57600;BME280;43426;43.594;24.334;2023-08-01T11:38:52;100408.28;;;34.47;34.96
57600;BME280;43426;43.594;24.334;2023-08-01T11:41:18;100417.97;;;34.71;34.56
57600;BME280;43426;43.594;24.334;2023-08-01T11:43:43;100412.75;;;35.03;32.27
57600;BME280;43426;43.594;24.334;2023-08-01T11:46:09;100405.38;;;34.98;33.30
57600;BME280;43426;43.594;24.334;2023-08-01T11:48:35;100399.09;;;35.01;34.51
57600;BME280;43426;43.594;24.334;2023-08-01T11:51:00;100402.13;;;35.08;33.51
57600;BME280;43426;43.594;24.334;2023-08-01T11:53:26;100379.59;;;35.51;33.84
57600;BME280;43426;43.594;24.334;2023-08-01T11:55:53;100380.25;;;36.09;33.23
57600;BME280;43426;43.594;24.334;2023-08-01T11:58:30;100380.19;;;36.06;32.87
57600;BME280;43426;43.594;24.334;2023-08-01T12:03:28;100375.06;;;36.49;30.07
57600;BME280;43426;43.594;24.334;2023-08-01T12:06:02;100371.56;;;36.27;29.40
57600;BME280;43426;43.594;24.334;2023-08-01T12:08:27;100383.34;;;35.92;29.43
57600;BME280;43426;43.594;24.334;2023-08-01T12:10:58;100371.41;;;35.83;29.52
57600;BME280;43426;43.594;24.334;2023-08-01T12:13:24;100355.34;;;35.71;29.53
57600;BME280;43426;43.594;24.334;2023-08-01T12:15:50;100356.28;;;34.92;31.26
57600;BME280;43426;43.594;24.334;2023-08-01T12:18:20;100351.47;;;35.26;34.09
57600;BME280;43426;43.594;24.334;2023-08-01T12:20:46;100347.53;;;35.64;31.10
57600;BME280;43426;43.594;24.334;2023-08-01T12:23:11;100348.72;;;36.00;30.01
57600;BME280;43426;43.594;24.334;2023-08-01T12:25:37;100344.88;;;36.21;31.59
57600;BME280;43426;43.594;24.334;2023-08-01T12:28:02;100338.09;;;36.22;27.53
57600;BME280;43426;43.594;24.334;2023-08-01T12:30:27;100333.94;;;36.03;28.51
57600;BME280;43426;43.594;24.334;2023-08-01T12:32:53;100335.47;;;36.01;26.89